.
WxDataArchive / Data Records for 2013-09-28
2013-09-27 September 2013 2013-09-29

Data Records for Saturday, 28 September 2013

Time	Temp	Chill	HIndex	Humid	Dewpt	 Wind 	HiWind	WindDir	Rain 	Barom 
-----	----	-----	------	-----	-----	------	------	-------	-----	----- 
00:00	57.6	57.6	57.6	78	50.8	0	1	90	0.00	30.138 
00:05	57.5	57.5	57.5	79	51.0	0	2	90	0.00	30.138 
00:10	57.2	57.2	57.2	79	50.7	0	3	90	0.00	30.138 
00:15	57.0	57.0	57.0	80	50.9	0	2	90	0.00	30.134 
00:20	56.9	56.9	56.9	80	50.8	0	2	90	0.00	30.134 
00:25	56.7	56.7	56.7	81	50.9	0	1	90	0.00	30.134 
00:30	56.5	56.5	56.5	81	50.7	0	1	90	0.00	30.134 
00:35	56.2	56.2	56.2	81	50.4	0	1	90	0.00	30.134 
00:40	55.9	55.9	55.9	81	50.2	0	0	---	0.00	30.134 
00:45	55.7	55.7	55.7	82	50.3	0	0	---	0.00	30.136 
00:50	55.4	55.4	55.4	82	50.0	0	0	---	0.00	30.136 
00:55	55.1	55.1	55.1	83	50.0	0	0	---	0.00	30.136 
01:00	54.8	54.8	54.8	83	49.7	0	0	---	0.00	30.135 
01:05	54.7	54.7	54.7	83	49.6	0	0	---	0.00	30.135 
01:10	54.4	54.4	54.4	84	49.7	0	0	---	0.00	30.135 
01:15	54.1	54.1	54.1	84	49.4	0	0	---	0.00	30.134 
01:20	53.9	53.9	53.9	84	49.2	0	0	---	0.00	30.134 
01:25	53.6	53.6	53.6	85	49.2	0	0	---	0.00	30.134 
01:30	53.5	53.5	53.5	86	49.4	0	0	---	0.00	30.131 
01:35	53.3	53.3	53.3	86	49.2	0	0	---	0.00	30.131 
01:40	53.2	53.2	53.2	87	49.4	0	0	---	0.00	30.131 
01:45	53.2	53.2	53.2	88	49.7	0	1	90	0.00	30.133 
01:50	53.3	53.3	53.3	88	49.8	0	1	90	0.00	30.133 
01:55	53.3	53.3	53.3	88	49.8	0	0	---	0.00	30.133 
02:00	53.3	53.3	53.3	89	50.1	0	0	---	0.00	30.132 
02:05	53.3	53.3	53.3	89	50.1	0	1	90	0.00	30.132 
02:10	53.3	53.3	53.3	89	50.1	0	1	90	0.00	30.132 
02:15	53.3	53.3	53.3	89	50.1	0	1	90	0.00	30.127 
02:20	53.2	53.2	53.2	89	50.0	0	0	---	0.00	30.127 
02:25	53.2	53.2	53.2	89	50.0	0	0	---	0.00	30.127 
02:30	53.1	53.1	53.1	89	49.9	0	1	90	0.00	30.127 
02:35	53.1	53.1	53.1	90	50.2	0	1	90	0.00	30.127 
02:40	53.1	53.1	53.1	90	50.2	0	0	---	0.00	30.127 
02:45	52.9	52.9	52.9	90	50.0	0	1	90	0.00	30.125 
02:50	52.9	52.9	52.9	90	50.0	0	1	90	0.00	30.125 
02:55	52.9	52.9	52.9	90	50.0	0	1	90	0.00	30.125 
03:00	52.8	52.8	52.8	91	50.2	0	1	90	0.00	30.124 
03:05	52.8	52.8	52.8	91	50.2	0	2	90	0.00	30.124 
03:10	52.8	52.8	52.8	91	50.2	0	1	90	0.00	30.124 
03:15	52.8	52.8	52.8	91	50.2	0	1	90	0.00	30.122 
03:20	52.6	52.6	52.6	91	50.0	0	1	90	0.00	30.122 
03:25	52.6	52.6	52.6	92	50.3	0	1	90	0.00	30.122 
03:30	52.5	52.5	52.5	92	50.2	0	1	90	0.00	30.120 
03:35	52.3	52.3	52.3	92	50.0	0	0	---	0.00	30.120 
03:40	52.2	52.2	52.2	92	49.9	0	0	---	0.00	30.120 
03:45	52.0	52.0	52.0	92	49.7	0	1	90	0.00	30.119 
03:50	52.2	52.2	52.2	92	49.9	0	2	90	0.00	30.119 
03:55	52.2	52.2	52.2	92	49.9	0	1	90	0.00	30.119 
04:00	52.2	52.2	52.2	92	49.9	0	1	90	0.00	30.118 
04:05	52.2	52.2	52.2	93	50.2	0	1	90	0.00	30.118 
04:10	52.0	52.0	52.0	93	50.0	0	1	90	0.00	30.118 
04:15	52.0	52.0	52.0	93	50.0	0	1	90	0.00	30.120 
04:20	52.0	52.0	52.0	93	50.0	0	1	90	0.00	30.120 
04:25	51.9	51.9	51.9	93	49.9	0	1	90	0.00	30.120 
04:30	51.9	51.9	51.9	93	49.9	0	0	---	0.00	30.121 
04:35	51.7	51.7	51.7	93	49.7	0	0	---	0.00	30.121 
04:40	51.6	51.6	51.6	93	49.6	0	0	---	0.00	30.121 
04:45	51.4	51.4	51.4	93	49.4	0	0	---	0.00	30.121 
04:50	51.1	51.1	51.1	93	49.1	0	0	---	0.00	30.121 
04:55	50.8	50.8	50.8	93	48.8	0	0	---	0.00	30.121 
05:00	50.7	50.7	50.7	93	48.7	0	0	---	0.00	30.121 
05:05	50.7	50.7	50.7	93	48.7	0	0	---	0.00	30.121 
05:10	50.7	50.7	50.7	94	49.0	0	1	90	0.00	30.121 
05:15	50.8	50.8	50.8	94	49.1	0	0	---	0.00	30.122 
05:20	51.0	51.0	51.0	94	49.3	0	0	---	0.00	30.122 
05:25	51.0	51.0	51.0	94	49.3	0	0	---	0.00	30.122 
05:30	51.0	51.0	51.0	94	49.3	0	1	90	0.00	30.120 
05:35	51.0	51.0	51.0	94	49.3	0	0	---	0.00	30.120 
05:40	50.8	50.8	50.8	94	49.1	0	1	90	0.00	30.120 
05:45	50.8	50.8	50.8	94	49.1	0	0	---	0.00	30.119 
05:50	50.7	50.7	50.7	94	49.0	0	0	---	0.00	30.119 
05:55	50.8	50.8	50.8	94	49.1	0	1	90	0.00	30.119 
06:00	50.8	50.8	50.8	94	49.1	0	0	---	0.00	30.122 
06:05	50.7	50.7	50.7	94	49.0	0	0	---	0.00	30.122 
06:10	50.5	50.5	50.5	94	48.8	0	0	---	0.00	30.122 
06:15	50.4	50.4	50.4	94	48.7	0	0	---	0.00	30.126 
06:20	50.4	50.4	50.4	95	49.0	0	0	---	0.00	30.126 
06:25	50.2	50.2	50.2	94	48.5	0	0	---	0.00	30.126 
06:30	50.1	50.1	50.1	94	48.4	0	0	---	0.00	30.128 
06:35	49.9	49.9	49.9	94	48.2	0	0	---	0.00	30.128 
06:40	49.8	49.8	49.8	94	48.1	0	0	---	0.00	30.128 
06:45	49.6	49.6	49.6	94	47.9	0	0	---	0.00	30.137 
06:50	49.5	49.5	49.5	94	47.8	0	0	---	0.00	30.137 
06:55	49.4	49.4	49.4	94	47.7	0	0	---	0.00	30.137 
07:00	49.1	49.1	49.1	94	47.4	0	0	---	0.00	30.139 
07:05	48.8	48.8	48.8	94	47.1	0	0	---	0.00	30.139 
07:10	48.6	48.6	48.6	94	47.0	0	1	90	0.00	30.139 
07:15	48.8	48.8	48.8	95	47.4	0	1	90	0.00	30.146 
07:20	49.1	49.1	49.1	95	47.7	0	2	90	0.00	30.146 
07:25	49.4	49.4	49.4	95	48.0	0	1	90	0.00	30.146 
07:30	49.6	49.6	49.6	95	48.2	0	0	---	0.00	30.147 
07:35	49.8	49.8	49.8	95	48.4	0	1	90	0.00	30.147 
07:40	49.8	49.8	49.8	95	48.4	0	0	---	0.00	30.147 
07:45	49.8	49.8	49.8	95	48.4	0	0	---	0.00	30.146 
07:50	49.6	49.6	49.6	95	48.2	0	0	---	0.00	30.146 
07:55	49.5	49.5	49.5	95	48.1	0	0	---	0.00	30.146 
08:00	49.4	49.4	49.4	95	48.0	0	0	---	0.00	30.149 
08:05	49.4	49.4	49.4	95	48.0	0	0	---	0.00	30.149 
08:10	49.6	49.6	49.6	95	48.2	0	1	90	0.00	30.149 
08:15	49.9	49.9	49.9	95	48.5	0	1	90	0.00	30.153 
08:20	50.2	50.2	50.2	96	49.1	0	0	---	0.00	30.153 
08:25	50.4	50.4	50.4	96	49.3	0	1	90	0.00	30.153 
08:30	50.7	50.7	50.7	96	49.6	0	1	90	0.00	30.155 
08:35	51.0	51.0	51.0	96	49.9	0	2	90	0.00	30.155 
08:40	51.3	51.3	51.3	96	50.2	0	2	90	0.00	30.155 
08:45	51.4	51.4	51.4	96	50.3	0	1	90	0.00	30.153 
08:50	51.7	51.7	51.7	96	50.6	0	1	90	0.00	30.153 
08:55	51.9	51.9	51.9	96	50.8	0	2	90	0.00	30.153 
09:00	52.2	52.2	52.2	96	51.1	0	1	90	0.00	30.152 
09:05	52.5	52.5	52.5	96	51.4	0	1	90	0.00	30.152 
09:10	52.8	52.8	52.8	96	51.7	0	2	90	0.00	30.152 
09:15	53.1	53.1	53.1	95	51.7	0	2	90	0.00	30.158 
09:20	53.2	53.2	53.2	95	51.8	0	3	90	0.00	30.158 
09:25	53.5	53.5	53.5	95	52.1	0	1	90	0.00	30.158 
09:30	53.8	53.8	53.8	95	52.4	0	1	90	0.00	30.158 
09:35	54.1	54.1	54.1	95	52.7	0	3	90	0.00	30.158 
09:40	54.5	54.5	54.5	94	52.8	0	3	90	0.00	30.158 
09:45	55.1	55.1	55.1	93	53.1	0	1	90	0.00	30.160 
09:50	55.4	55.4	55.4	92	53.1	0	2	90	0.00	30.160 
09:55	56.0	56.0	56.0	92	53.7	0	0	---	0.00	30.160 
10:00	56.5	56.5	56.5	90	53.6	0	2	90	0.00	30.157 
10:05	56.9	56.9	56.9	89	53.7	0	0	---	0.00	30.157 
10:10	57.5	57.5	57.5	88	54.0	0	0	---	0.00	30.157 
10:15	58.1	58.1	58.1	87	54.2	0	1	90	0.00	30.158 
10:20	59.2	59.2	59.2	84	54.4	0	0	---	0.00	30.158 
10:25	60.4	60.4	60.4	81	54.5	0	0	---	0.00	30.158 
10:30	61.8	61.8	61.8	78	54.9	0	0	---	0.00	30.157 
10:35	62.9	62.9	62.9	74	54.5	0	0	---	0.00	30.157 
10:40	63.9	63.9	63.9	72	54.7	0	0	---	0.00	30.157 
10:45	64.5	64.5	64.5	67	53.3	0	0	---	0.00	30.153 
10:50	65.2	65.2	65.2	68	54.4	0	0	---	0.00	30.153 
10:55	66.0	66.0	66.0	66	54.3	0	0	---	0.00	30.153 
11:00	66.9	66.9	66.9	65	54.7	0	0	---	0.00	30.154 
11:05	67.8	67.8	67.8	62	54.3	0	0	---	0.00	30.154 
11:10	68.4	68.4	68.4	60	54.0	0	0	---	0.00	30.154 
11:15	69.3	69.3	69.3	59	54.3	0	0	---	0.00	30.148 
11:20	69.9	69.9	69.9	58	54.4	0	0	---	0.00	30.148 
11:25	70.8	70.8	70.8	58	55.3	0	0	---	0.00	30.148 
11:30	71.5	71.5	71.5	54	54.0	0	0	---	0.00	30.139 
11:35	72.0	72.0	72.0	53	53.9	0	0	---	0.00	30.139 
11:40	72.8	72.8	72.8	53	54.7	0	0	---	0.00	30.139 
11:45	73.7	73.7	73.7	50	53.9	0	0	---	0.00	30.134 
11:50	74.2	74.2	74.2	50	54.3	0	0	---	0.00	30.134 
11:55	74.6	74.6	74.6	48	53.6	0	0	---	0.00	30.134 
12:00	74.7	74.7	74.7	49	54.3	0	0	---	0.00	30.131 
12:05	74.9	74.9	74.9	48	53.9	0	0	---	0.00	30.131 
12:10	74.9	74.9	74.9	49	54.4	0	0	---	0.00	30.131 
12:15	75.4	75.4	77.8	48	54.3	0	0	---	0.00	30.123 
12:20	76.1	76.1	78.0	46	53.8	0	0	---	0.00	30.123 
12:25	76.5	76.5	78.3	47	54.7	0	1	90	0.00	30.123 
12:30	76.8	76.8	78.4	48	55.6	0	0	---	0.00	30.116 
12:35	77.4	77.4	78.6	45	54.4	0	1	90	0.00	30.116 
12:40	77.7	77.7	78.7	43	53.4	0	1	90	0.00	30.116 
12:45	78.3	78.3	78.9	41	52.6	0	0	---	0.00	30.108 
12:50	78.3	78.3	78.9	41	52.6	0	1	90	0.00	30.108 
12:55	78.6	78.6	79.1	41	52.9	0	0	---	0.00	30.108 
13:00	78.6	78.6	79.0	40	52.2	0	1	90	0.00	30.102 
13:05	78.8	78.8	79.2	41	53.1	0	0	---	0.00	30.102 
13:10	79.2	79.2	79.5	41	53.4	0	1	90	0.00	30.102 
13:15	79.0	79.0	79.2	38	51.2	0	2	315	0.00	30.097 
13:20	79.4	79.4	79.5	39	52.3	0	2	90	0.00	30.097 
13:25	79.4	79.4	79.2	35	49.3	0	3	112	0.00	30.097 
13:30	79.6	79.6	79.4	36	50.3	0	1	112	0.00	30.088 
13:35	79.8	79.8	79.4	35	49.7	0	2	270	0.00	30.088 
13:40	79.8	79.8	79.4	35	49.7	0	1	45	0.00	30.088 
13:45	79.8	79.8	79.3	34	48.9	0	1	248	0.00	30.077 
13:50	80.1	80.1	79.6	35	50.0	0	3	270	0.00	30.077 
13:55	80.1	80.1	79.7	36	50.7	0	2	315	0.00	30.077 
14:00	79.9	79.9	79.6	36	50.5	0	2	270	0.00	30.069 
14:05	80.3	80.3	80.1	39	53.1	0	0	---	0.00	30.069 
14:10	80.5	80.5	79.8	34	49.5	0	5	90	0.00	30.069 
14:15	80.3	80.3	79.7	34	49.3	0	2	90	0.00	30.059 
14:20	80.3	80.3	79.7	35	50.1	0	0	---	0.00	30.059 
14:25	80.1	80.1	79.5	34	49.2	0	4	90	0.00	30.059 
14:30	80.1	80.1	79.8	37	51.5	0	1	270	0.00	30.053 
14:35	80.3	80.3	79.7	35	50.1	0	5	112	0.00	30.053 
14:40	80.5	80.5	79.8	34	49.5	0	2	90	0.00	30.053 
14:45	80.9	80.9	80.0	33	49.1	0	2	90	0.00	30.043 
14:50	81.1	81.1	79.9	30	46.7	0	1	90	0.00	30.043 
14:55	81.1	81.1	80.0	32	48.4	0	2	90	0.00	30.043 
15:00	80.9	80.9	80.0	33	49.1	0	3	112	0.00	30.040 
15:05	80.9	80.9	80.0	33	49.1	0	0	---	0.00	30.040 
15:10	80.3	80.3	79.6	33	48.5	0	2	248	0.00	30.040 
15:15	79.9	79.9	79.3	33	48.2	0	0	---	0.00	30.041 
15:20	79.8	79.8	79.4	35	49.7	0	1	248	0.00	30.041 
15:25	80.1	80.1	79.6	35	50.0	0	0	---	0.00	30.041 
15:30	80.5	80.5	79.6	31	47.1	0	2	90	0.00	30.039 
15:35	80.7	80.7	79.8	32	48.1	0	3	112	0.00	30.039 
15:40	80.9	80.9	79.8	31	47.4	0	1	135	0.00	30.039 
15:45	80.9	80.9	79.8	31	47.4	0	2	90	0.00	30.034 
15:50	81.1	81.1	80.1	33	49.2	0	2	90	0.00	30.034 
15:55	81.1	81.1	80.0	32	48.4	0	1	90	0.00	30.034 
16:00	81.2	81.2	80.0	31	47.7	0	4	90	0.00	30.031 
16:05	81.1	81.1	80.0	32	48.4	0	1	90	0.00	30.031 
16:10	80.5	80.5	79.9	35	50.3	1	5	112	0.00	30.031 
16:15	79.9	79.9	79.4	34	49.0	0	1	112	0.00	30.030 
16:20	79.8	79.8	79.4	35	49.7	0	0	---	0.00	30.030 
16:25	79.6	79.6	79.3	35	49.5	0	1	45	0.00	30.030 
16:30	79.6	79.6	79.3	35	49.5	0	0	---	0.00	30.026 
16:35	79.6	79.6	79.3	35	49.5	0	0	---	0.00	30.026 
16:40	79.4	79.4	79.2	35	49.3	0	1	68	0.00	30.026 
16:45	79.4	79.4	79.2	35	49.3	0	2	112	0.00	30.022 
16:50	79.4	79.4	79.2	35	49.3	0	1	112	0.00	30.022 
16:55	79.4	79.4	79.2	35	49.3	0	2	90	0.00	30.022 
17:00	79.6	79.6	79.2	34	48.7	0	1	90	0.00	30.020 
17:05	79.6	79.6	79.3	35	49.5	0	2	90	0.00	30.020 
17:10	79.6	79.6	79.2	34	48.7	0	3	90	0.00	30.020 
17:15	79.8	79.8	79.3	34	48.9	0	3	90	0.00	30.018 
17:20	79.9	79.9	79.5	35	49.8	0	1	68	0.00	30.018 
17:25	79.9	79.9	79.4	34	49.0	0	2	68	0.00	30.018 
17:30	80.1	80.1	79.6	35	50.0	0	1	112	0.00	30.017 
17:35	79.9	79.9	79.4	34	49.0	0	2	292	0.00	30.017 
17:40	79.8	79.8	79.5	36	50.4	0	0	---	0.00	30.017 
17:45	79.4	79.4	79.3	37	50.8	0	2	68	0.00	30.014 
17:50	79.2	79.2	79.1	35	49.2	0	0	---	0.00	30.014 
17:55	79.0	79.0	79.0	36	49.7	0	0	---	0.00	30.014 
18:00	78.6	78.6	78.7	35	48.6	0	0	---	0.00	30.013 
18:05	78.5	78.5	78.7	36	49.3	0	0	---	0.00	30.013 
18:10	78.3	78.3	78.7	37	49.9	0	0	---	0.00	30.013 
18:15	78.3	78.3	78.8	38	50.6	0	0	---	0.00	30.017 
18:20	78.3	78.3	78.8	38	50.6	0	0	---	0.00	30.017 
18:25	78.3	78.3	78.8	38	50.6	0	0	---	0.00	30.017 
18:30	78.1	78.1	78.7	38	50.4	0	0	---	0.00	30.018 
18:35	77.9	77.9	78.6	39	50.9	0	0	---	0.00	30.018 
18:40	77.7	77.7	78.5	38	50.0	0	0	---	0.00	30.018 
18:45	77.6	77.6	78.5	39	50.7	0	0	---	0.00	30.017 
18:50	77.2	77.2	78.3	40	51.0	0	0	---	0.00	30.017 
18:55	76.8	76.8	78.1	40	50.6	0	0	---	0.00	30.017 
19:00	76.7	76.7	78.1	41	51.2	0	0	---	0.00	30.019 
19:05	76.3	76.3	78.0	42	51.5	0	0	---	0.00	30.019 
19:10	76.0	76.0	77.9	43	51.9	0	0	---	0.00	30.019 
19:15	75.4	75.4	77.7	43	51.3	0	0	---	0.00	30.018 
19:20	74.9	74.9	74.9	44	51.5	0	0	---	0.00	30.018 
19:25	74.4	74.4	74.4	46	52.3	0	0	---	0.00	30.018 
19:30	73.9	73.9	73.9	46	51.8	0	0	---	0.00	30.019 
19:35	73.3	73.3	73.3	49	53.0	0	0	---	0.00	30.019 
19:40	72.5	72.5	72.5	50	52.8	0	0	---	0.00	30.019 
19:45	71.6	71.6	71.6	52	53.0	0	0	---	0.00	30.019 
19:50	70.9	70.9	70.9	53	52.9	0	0	---	0.00	30.019 
19:55	70.3	70.3	70.3	54	52.9	0	0	---	0.00	30.019 
20:00	69.6	69.6	69.6	55	52.7	0	0	---	0.00	30.020 
20:05	69.1	69.1	69.1	57	53.2	0	0	---	0.00	30.020 
20:10	68.4	68.4	68.4	58	53.0	0	0	---	0.00	30.020 
20:15	68.1	68.1	68.1	58	52.8	0	0	---	0.00	30.019 
20:20	67.6	67.6	67.6	60	53.2	0	0	---	0.00	30.019 
20:25	67.1	67.1	67.1	61	53.2	0	0	---	0.00	30.019 
20:30	66.6	66.6	66.6	62	53.2	0	0	---	0.00	30.021 
20:35	66.3	66.3	66.3	62	52.9	0	0	---	0.00	30.021 
20:40	66.0	66.0	66.0	63	53.0	0	0	---	0.00	30.021 
20:45	65.8	65.8	65.8	63	52.8	0	0	---	0.00	30.021 
20:50	65.6	65.6	65.6	63	52.7	0	0	---	0.00	30.021 
20:55	65.6	65.6	65.6	63	52.7	0	0	---	0.00	30.021 
21:00	65.6	65.6	65.6	63	52.7	0	0	---	0.00	30.020 
21:05	65.5	65.5	65.5	63	52.6	0	0	---	0.00	30.020 
21:10	65.5	65.5	65.5	63	52.6	0	0	---	0.00	30.020 
21:15	65.3	65.3	65.3	63	52.4	0	0	---	0.00	30.017 
21:20	65.6	65.6	65.6	62	52.2	0	0	---	0.00	30.017 
21:25	66.0	66.0	66.0	61	52.2	0	0	---	0.00	30.017 
21:30	66.3	66.3	66.3	61	52.4	0	0	---	0.00	30.010 
21:35	66.4	66.4	66.4	60	52.1	0	0	---	0.00	30.010 
21:40	66.6	66.6	66.6	60	52.3	0	0	---	0.00	30.010 
21:45	66.4	66.4	66.4	60	52.1	0	0	---	0.00	30.004 
21:50	66.4	66.4	66.4	60	52.1	0	0	---	0.00	30.004 
21:55	66.4	66.4	66.4	60	52.1	0	0	---	0.00	30.004 
22:00	66.4	66.4	66.4	60	52.1	0	0	---	0.00	30.007 
22:05	66.6	66.6	66.6	59	51.8	0	0	---	0.00	30.007 
22:10	66.8	66.8	66.8	59	52.0	0	0	---	0.00	30.007 
22:15	66.8	66.8	66.8	59	52.0	0	0	---	0.00	29.996 
22:20	66.8	66.8	66.8	59	52.0	0	0	---	0.00	29.996 
22:25	66.8	66.8	66.8	60	52.5	0	0	---	0.00	29.996 
22:30	66.6	66.6	66.6	60	52.3	0	0	---	0.00	29.994 
22:35	66.4	66.4	66.4	60	52.1	0	0	---	0.00	29.994 
22:40	66.3	66.3	66.3	61	52.4	0	0	---	0.00	29.994 
22:45	66.3	66.3	66.3	61	52.4	0	0	---	0.00	29.995 
22:50	66.1	66.1	66.1	61	52.3	0	0	---	0.00	29.995 
22:55	66.0	66.0	66.0	62	52.6	0	0	---	0.00	29.995 
23:00	66.0	66.0	66.0	62	52.6	0	0	---	0.00	29.996 
23:05	65.8	65.8	65.8	62	52.4	0	0	---	0.00	29.996 
23:10	65.8	65.8	65.8	62	52.4	0	0	---	0.00	29.996 
23:15	65.6	65.6	65.6	63	52.7	0	0	---	0.00	29.990 
23:20	65.3	65.3	65.3	63	52.4	0	0	---	0.00	29.990 
23:25	65.2	65.2	65.2	64	52.7	0	0	---	0.00	29.990 
23:30	65.0	65.0	65.0	65	52.9	0	0	---	0.00	29.989 
23:35	64.8	64.8	64.8	65	52.8	0	0	---	0.00	29.989 
23:40	64.8	64.8	64.8	65	52.8	0	0	---	0.00	29.989 
23:45	64.8	64.8	64.8	65	52.8	0	0	---	0.00	29.991 
23:50	65.0	65.0	65.0	65	52.9	0	0	---	0.00	29.991 
23:55	64.8	64.8	64.8	65	52.8	0	0	---	0.00	29.991 

CoCoRaHS
IN-AL-39
A2 Web Hosting
Creative Commons License
GoDaddy
search engine by freefind advanced

loaded 2018-11-18 12:20:38 • last modified 2010-11-18 10:43:29
Privacy PolicyDisclaimer
• wx.awcolley.com is powered by PmWiki v.2002016 •
• all content (unless otherwise noted) © 2018 A W Colley